Terminal Aerodrome Forecast
Issued by NWS

Home | Current Version | Previous Version | Text Only | Print | Product List | Glossary On
Versions: 1 2 3 4 5 6 7 8 9 10 11 12 13 14 15 16 17
000
FTUS43 KUNR 251120
TAFGCC
TAF
KGCC 251120Z 2512/2612 03018KT 3/4SM -SN BR OVC003
     FM252000 36016KT 2SM -SN BR OVC004
     FM260000 34008KT P6SM BKN010=

USA.gov is the U.S. government's official web portal to all federal, state and local government web resources and services.